CQH6837 ZSWZ-ZUCK
Flight info
| Callsign | CQH6837 |
|---|---|
| Flight time | N/A |
| Altitude | 36100 |
| Route | BZ DCT SHR DCT TOCEF DCT KAKBA DCT DYTES DCT XSH W80 IRPOG |
| Aircraft | A320/M-SDE3FGHIRWY/LB1 |
Departure
| Time | 2026-05-04 07:58 |
|---|---|
| Airport | Wenzhou Longwan International Airport (ZSWZ) |
Arrival
| Time | N/A |
|---|---|
| Airport | Chongqing Jiangbei International Airport (ZUCK) |
| Time | Latitude | Longitude | Altitude | Speed | Heading |
|---|---|---|---|---|---|
| 2026-05-04 07:38 | 27.90797 | 120.84544 | 19 ft | 0 kts | 298° |
| 2026-05-04 07:50 | 27.90796 | 120.84545 | 17 ft | 1 kts | 298° |
| 2026-05-04 07:50 | 27.90783 | 120.84569 | 21 ft | 4 kts | 313° |
| 2026-05-04 07:50 | 27.90763 | 120.84587 | 21 ft | 4 kts | 346° |
| 2026-05-04 07:50 | 27.90742 | 120.84586 | 19 ft | 1 kts | 28° |
| 2026-05-04 07:52 | 27.90748 | 120.84590 | 19 ft | 4 kts | 28° |
| 2026-05-04 07:52 | 27.90791 | 120.84617 | 20 ft | 10 kts | 31° |
| 2026-05-04 07:52 | 27.90780 | 120.84705 | 18 ft | 15 kts | 117° |
| 2026-05-04 07:52 | 27.90733 | 120.84811 | 17 ft | 14 kts | 98° |
| 2026-05-04 07:53 | 27.90798 | 120.84879 | 17 ft | 14 kts | 27° |
| 2026-05-04 07:54 | 27.91640 | 120.85397 | 18 ft | 26 kts | 27° |
| 2026-05-04 07:55 | 27.91805 | 120.85495 | 17 ft | 27 kts | 28° |
| 2026-05-04 07:55 | 27.91973 | 120.85597 | 18 ft | 28 kts | 28° |
| 2026-05-04 07:55 | 27.92141 | 120.85700 | 18 ft | 28 kts | 28° |
| 2026-05-04 07:55 | 27.92205 | 120.85767 | 18 ft | 3 kts | 103° |
| 2026-05-04 07:56 | 27.92203 | 120.85780 | 18 ft | 0 kts | 103° |
| 2026-05-04 07:56 | 27.92168 | 120.85844 | 18 ft | 21 kts | 117° |
| 2026-05-04 07:57 | 27.92120 | 120.85956 | 19 ft | 24 kts | 116° |
| 2026-05-04 07:57 | 27.92110 | 120.85979 | 19 ft | 0 kts | 120° |
| 2026-05-04 07:57 | 27.92083 | 120.85961 | 17 ft | 19 kts | 223° |
| 2026-05-04 07:57 | 27.91734 | 120.85743 | 17 ft | 92 kts | 206° |
| 2026-05-04 07:58 | 27.91004 | 120.85314 | 21 ft | 146 kts | 208° |
| 2026-05-04 07:58 | 27.90028 | 120.84728 | 376 ft | 159 kts | 207° |
| 2026-05-04 07:58 | 27.89046 | 120.84138 | 905 ft | 169 kts | 207° |
| 2026-05-04 07:58 | 27.87918 | 120.83454 | 1243 ft | 203 kts | 208° |
| 2026-05-04 07:59 | 27.86640 | 120.82647 | 2090 ft | 216 kts | 208° |
| 2026-05-04 07:59 | 27.85249 | 120.81774 | 2832 ft | 237 kts | 207° |
| 2026-05-04 07:59 | 27.83778 | 120.80897 | 3886 ft | 242 kts | 207° |
| 2026-05-04 07:59 | 27.82265 | 120.80004 | 4680 ft | 248 kts | 207° |
| 2026-05-04 08:00 | 27.80719 | 120.79091 | 5447 ft | 253 kts | 208° |
| 2026-05-04 08:00 | 27.79145 | 120.78153 | 6233 ft | 257 kts | 208° |
| 2026-05-04 08:00 | 27.77543 | 120.77228 | 6966 ft | 261 kts | 202° |
| 2026-05-04 08:02 | 27.77489 | 120.84885 | 11455 ft | 269 kts | 1° |
| 2026-05-04 08:02 | 27.79356 | 120.85074 | 12098 ft | 272 kts | 0° |
| 2026-05-04 08:02 | 27.81263 | 120.85257 | 12764 ft | 275 kts | 360° |
| 2026-05-04 08:03 | 27.83157 | 120.85443 | 13412 ft | 278 kts | 359° |
| 2026-05-04 08:03 | 27.85098 | 120.85639 | 14056 ft | 282 kts | 359° |
| 2026-05-04 08:03 | 27.87088 | 120.85844 | 14611 ft | 286 kts | 359° |
| 2026-05-04 08:03 | 27.89062 | 120.86023 | 15120 ft | 288 kts | 353° |
| 2026-05-04 08:04 | 27.90982 | 120.85595 | 15613 ft | 278 kts | 328° |
| 2026-05-04 08:04 | 27.92516 | 120.84333 | 16026 ft | 276 kts | 306° |
| 2026-05-04 08:04 | 27.93454 | 120.82426 | 16142 ft | 286 kts | 282° |
| 2026-05-04 08:04 | 27.93809 | 120.80157 | 16273 ft | 303 kts | 277° |
| 2026-05-04 08:05 | 27.94127 | 120.77722 | 16398 ft | 321 kts | 277° |
| 2026-05-04 08:05 | 27.94456 | 120.75178 | 16524 ft | 338 kts | 277° |
| 2026-05-04 08:05 | 27.94809 | 120.72469 | 16652 ft | 354 kts | 277° |
| 2026-05-04 08:05 | 27.95180 | 120.69655 | 16795 ft | 368 kts | 277° |
| 2026-05-04 08:06 | 27.95568 | 120.66756 | 17183 ft | 375 kts | 277° |
| 2026-05-04 08:06 | 27.95966 | 120.63826 | 17688 ft | 378 kts | 277° |
| 2026-05-04 08:06 | 27.96371 | 120.60883 | 18228 ft | 380 kts | 276° |
| 2026-05-04 08:06 | 27.96776 | 120.57921 | 18727 ft | 381 kts | 276° |
| 2026-05-04 08:08 | 27.99599 | 120.36976 | 21624 ft | 391 kts | 276° |
| 2026-05-04 08:08 | 28.00004 | 120.33925 | 21976 ft | 393 kts | 276° |
| 2026-05-04 08:10 | 28.03297 | 120.09132 | 24443 ft | 404 kts | 276° |
| 2026-05-04 08:11 | 28.03714 | 120.05979 | 24672 ft | 405 kts | 276° |
| 2026-05-04 08:11 | 28.04546 | 119.99653 | 25246 ft | 407 kts | 275° |
| 2026-05-04 08:11 | 28.04958 | 119.96502 | 25498 ft | 408 kts | 275° |
| 2026-05-04 08:12 | 28.05373 | 119.93307 | 25750 ft | 409 kts | 275° |
| 2026-05-04 08:12 | 28.05788 | 119.90117 | 25992 ft | 410 kts | 276° |
| 2026-05-04 08:12 | 28.06208 | 119.86909 | 26223 ft | 411 kts | 275° |
| 2026-05-04 08:12 | 28.06630 | 119.83692 | 26437 ft | 412 kts | 275° |
| 2026-05-04 08:13 | 28.07050 | 119.80477 | 26632 ft | 413 kts | 275° |
| 2026-05-04 08:13 | 28.07461 | 119.77313 | 26831 ft | 413 kts | 275° |
| 2026-05-04 08:13 | 28.07876 | 119.74082 | 27134 ft | 411 kts | 275° |
| 2026-05-04 08:13 | 28.08282 | 119.70892 | 27467 ft | 409 kts | 275° |
| 2026-05-04 08:14 | 28.08687 | 119.67711 | 27826 ft | 408 kts | 275° |
| 2026-05-04 08:14 | 28.09093 | 119.64534 | 28166 ft | 406 kts | 274° |
| 2026-05-04 08:14 | 28.09497 | 119.61373 | 28522 ft | 405 kts | 275° |
| 2026-05-04 08:16 | 28.13500 | 119.39814 | 30707 ft | 395 kts | 278° |
| 2026-05-04 08:16 | 28.14135 | 119.36793 | 30990 ft | 393 kts | 278° |
| 2026-05-04 08:16 | 28.14751 | 119.33788 | 31260 ft | 390 kts | 277° |
| 2026-05-04 08:17 | 28.15353 | 119.30796 | 31561 ft | 388 kts | 277° |
| 2026-05-04 08:17 | 28.15945 | 119.27830 | 31845 ft | 385 kts | 277° |
| 2026-05-04 08:17 | 28.16535 | 119.24880 | 32156 ft | 382 kts | 277° |
| 2026-05-04 08:17 | 28.17121 | 119.21948 | 32469 ft | 380 kts | 277° |
| 2026-05-04 08:19 | 28.21111 | 119.02013 | 34227 ft | 366 kts | 276° |
| 2026-05-04 08:19 | 28.21675 | 118.99192 | 34226 ft | 365 kts | 276° |
| 2026-05-04 08:20 | 28.22797 | 118.93575 | 34229 ft | 365 kts | 276° |
| 2026-05-04 08:20 | 28.23897 | 118.88061 | 34218 ft | 366 kts | 276° |
| 2026-05-04 08:21 | 28.25042 | 118.82333 | 34207 ft | 365 kts | 276° |
| 2026-05-04 08:21 | 28.26155 | 118.76698 | 34218 ft | 367 kts | 276° |
| 2026-05-04 08:22 | 28.27264 | 118.71061 | 34211 ft | 365 kts | 276° |
| 2026-05-04 08:24 | 28.31705 | 118.48484 | 34207 ft | 369 kts | 276° |
| 2026-05-04 08:24 | 28.32815 | 118.42797 | 34200 ft | 369 kts | 276° |
| 2026-05-04 08:25 | 28.33916 | 118.37120 | 34198 ft | 368 kts | 276° |
| 2026-05-04 08:25 | 28.35018 | 118.31451 | 34196 ft | 368 kts | 276° |
| 2026-05-04 08:27 | 28.39430 | 118.08684 | 34189 ft | 370 kts | 277° |
| 2026-05-04 08:28 | 28.40523 | 118.02969 | 34189 ft | 370 kts | 277° |
| 2026-05-04 08:28 | 28.42336 | 117.97434 | 34187 ft | 387 kts | 295° |
| 2026-05-04 08:29 | 28.44086 | 117.95035 | 34189 ft | 404 kts | 307° |
| 2026-05-04 08:29 | 28.46319 | 117.93012 | 34190 ft | 413 kts | 311° |
| 2026-05-04 08:31 | 28.64750 | 117.77323 | 34186 ft | 413 kts | 311° |
| 2026-05-04 08:33 | 28.79939 | 117.62879 | 34180 ft | 398 kts | 302° |
| 2026-05-04 08:33 | 28.81798 | 117.60536 | 34194 ft | 398 kts | 302° |
| 2026-05-04 08:35 | 28.96631 | 117.41806 | 34177 ft | 397 kts | 302° |
| 2026-05-04 08:35 | 29.00332 | 117.37120 | 34179 ft | 397 kts | 302° |
| 2026-05-04 08:37 | 29.13246 | 117.20739 | 34176 ft | 396 kts | 302° |
| 2026-05-04 08:38 | 29.16924 | 117.16048 | 34183 ft | 396 kts | 302° |
| 2026-05-04 08:38 | 29.20585 | 117.11391 | 34183 ft | 396 kts | 302° |
| 2026-05-04 08:40 | 29.35260 | 116.92642 | 34174 ft | 394 kts | 302° |
| 2026-05-04 08:41 | 29.37588 | 116.89668 | 34174 ft | 392 kts | 302° |
| 2026-05-04 08:43 | 29.38053 | 116.89064 | 34184 ft | 391 kts | 302° |
| 2026-05-04 08:44 | 29.41688 | 116.84364 | 34174 ft | 394 kts | 302° |
| 2026-05-04 08:46 | 29.56271 | 116.65642 | 34172 ft | 394 kts | 303° |
| 2026-05-04 08:46 | 29.59883 | 116.60994 | 34168 ft | 393 kts | 302° |
| 2026-05-04 08:47 | 29.63515 | 116.56304 | 34170 ft | 393 kts | 303° |
| 2026-05-04 08:47 | 29.67160 | 116.51606 | 34173 ft | 393 kts | 303° |
| 2026-05-04 08:48 | 29.70789 | 116.46909 | 34174 ft | 393 kts | 303° |
| 2026-05-04 08:48 | 29.74417 | 116.42200 | 34173 ft | 393 kts | 303° |
| 2026-05-04 08:49 | 29.78051 | 116.37471 | 34168 ft | 394 kts | 303° |
| 2026-05-04 08:50 | 29.90155 | 116.20586 | 34170 ft | 386 kts | 296° |
| 2026-05-04 08:51 | 29.93105 | 116.15408 | 34170 ft | 386 kts | 296° |
| 2026-05-04 08:51 | 29.96056 | 116.10225 | 34171 ft | 386 kts | 296° |
| 2026-05-04 08:52 | 29.99007 | 116.05040 | 34164 ft | 387 kts | 296° |
| 2026-05-04 08:52 | 30.01966 | 115.99862 | 34163 ft | 387 kts | 296° |
| 2026-05-04 08:54 | 30.13824 | 115.79124 | 34165 ft | 388 kts | 296° |
| 2026-05-04 08:55 | 30.16793 | 115.73905 | 34164 ft | 388 kts | 296° |
| 2026-05-04 08:55 | 30.19761 | 115.68680 | 34161 ft | 389 kts | 296° |
| 2026-05-04 09:01 | 30.44848 | 115.13817 | 34153 ft | 284 kts | 274° |
| 2026-05-04 09:01 | 30.45081 | 115.11607 | 34146 ft | 268 kts | 274° |
| 2026-05-04 09:01 | 30.45297 | 115.09557 | 34152 ft | 251 kts | 274° |
| 2026-05-04 09:01 | 30.45495 | 115.07568 | 33942 ft | 241 kts | 273° |
| 2026-05-04 09:02 | 30.45666 | 115.05644 | 33212 ft | 248 kts | 272° |
| 2026-05-04 09:02 | 30.45820 | 115.03604 | 32325 ft | 259 kts | 271° |
| 2026-05-04 09:02 | 30.45951 | 115.01511 | 31808 ft | 259 kts | 270° |
| 2026-05-04 09:02 | 30.46057 | 114.99471 | 31630 ft | 247 kts | 269° |
| 2026-05-04 09:03 | 30.46141 | 114.97509 | 31329 ft | 241 kts | 268° |
| 2026-05-04 09:03 | 30.46202 | 114.95550 | 30686 ft | 247 kts | 267° |
| 2026-05-04 09:03 | 30.46237 | 114.93524 | 29972 ft | 255 kts | 266° |
| 2026-05-04 09:03 | 30.46244 | 114.91464 | 29484 ft | 253 kts | 266° |
| 2026-05-04 09:04 | 30.46230 | 114.89466 | 29254 ft | 243 kts | 265° |
| 2026-05-04 09:04 | 30.46198 | 114.87532 | 28862 ft | 239 kts | 265° |
| 2026-05-04 09:04 | 30.46142 | 114.85588 | 28200 ft | 244 kts | 265° |
| 2026-05-04 09:04 | 30.46060 | 114.83603 | 27612 ft | 248 kts | 265° |
| 2026-05-04 09:05 | 30.45954 | 114.81622 | 27278 ft | 242 kts | 264° |
| 2026-05-04 09:05 | 30.45831 | 114.79709 | 26984 ft | 236 kts | 264° |
| 2026-05-04 09:05 | 30.45687 | 114.77814 | 26503 ft | 237 kts | 264° |
| 2026-05-04 09:05 | 30.45518 | 114.75890 | 25948 ft | 242 kts | 264° |
| 2026-05-04 09:06 | 30.45326 | 114.73984 | 25543 ft | 240 kts | 263° |
| 2026-05-04 09:07 | 30.43377 | 114.60905 | 22748 ft | 235 kts | 260° |
| 2026-05-04 09:08 | 30.43010 | 114.59046 | 22238 ft | 238 kts | 259° |
| 2026-05-04 09:08 | 30.42622 | 114.57193 | 21858 ft | 236 kts | 258° |
| 2026-05-04 09:08 | 30.42215 | 114.55356 | 21507 ft | 234 kts | 258° |
| 2026-05-04 09:08 | 30.41790 | 114.53534 | 21079 ft | 235 kts | 257° |
| 2026-05-04 09:09 | 30.41343 | 114.51707 | 20633 ft | 237 kts | 256° |
| 2026-05-04 09:09 | 30.40880 | 114.49897 | 20274 ft | 237 kts | 255° |
| 2026-05-04 09:09 | 30.40387 | 114.48059 | 19941 ft | 235 kts | 254° |
| 2026-05-04 09:09 | 30.39888 | 114.46283 | 19565 ft | 236 kts | 253° |
| 2026-05-04 09:10 | 30.39361 | 114.44479 | 19172 ft | 237 kts | 253° |
| 2026-05-04 09:10 | 30.38810 | 114.42672 | 18839 ft | 237 kts | 252° |
| 2026-05-04 09:10 | 30.38240 | 114.40883 | 18523 ft | 237 kts | 251° |
| 2026-05-04 09:10 | 30.37649 | 114.39102 | 18176 ft | 237 kts | 250° |
| 2026-05-04 09:11 | 30.37038 | 114.37332 | 17800 ft | 237 kts | 249° |
| 2026-05-04 09:11 | 30.36406 | 114.35576 | 17444 ft | 236 kts | 249° |
| 2026-05-04 09:11 | 30.35754 | 114.33834 | 17092 ft | 235 kts | 248° |
| 2026-05-04 09:11 | 30.35146 | 114.32047 | 16796 ft | 249 kts | 252° |
| 2026-05-04 09:12 | 30.34809 | 114.30062 | 17378 ft | 248 kts | 271° |
| 2026-05-04 09:12 | 30.35062 | 114.28026 | 17903 ft | 264 kts | 284° |
| 2026-05-04 09:14 | 30.36191 | 114.22106 | 18381 ft | 330 kts | 281° |
| 2026-05-04 09:15 | 30.36417 | 114.20638 | 18483 ft | 342 kts | 279° |
| 2026-05-04 09:15 | 30.36865 | 114.17849 | 18628 ft | 365 kts | 280° |
| 2026-05-04 09:15 | 30.37385 | 114.14868 | 18748 ft | 386 kts | 281° |
| 2026-05-04 09:15 | 30.37952 | 114.11768 | 19028 ft | 398 kts | 282° |
| 2026-05-04 09:17 | 30.42594 | 113.86212 | 22836 ft | 411 kts | 281° |
| 2026-05-04 09:18 | 30.43174 | 113.82961 | 23265 ft | 412 kts | 281° |
| 2026-05-04 09:18 | 30.43753 | 113.79714 | 23656 ft | 413 kts | 281° |
| 2026-05-04 09:18 | 30.44335 | 113.76443 | 23978 ft | 414 kts | 281° |
| 2026-05-04 09:18 | 30.44917 | 113.73172 | 24287 ft | 416 kts | 281° |
| 2026-05-04 09:19 | 30.45503 | 113.69882 | 24594 ft | 417 kts | 281° |
| 2026-05-04 09:19 | 30.46088 | 113.66582 | 24887 ft | 419 kts | 281° |
| 2026-05-04 09:19 | 30.46674 | 113.63268 | 25168 ft | 420 kts | 280° |
| 2026-05-04 09:19 | 30.47251 | 113.59994 | 25440 ft | 421 kts | 280° |
| 2026-05-04 09:20 | 30.47844 | 113.56616 | 25709 ft | 423 kts | 280° |
| 2026-05-04 09:20 | 30.48429 | 113.53275 | 25966 ft | 424 kts | 280° |
| 2026-05-04 09:20 | 30.49012 | 113.49962 | 26221 ft | 425 kts | 280° |
| 2026-05-04 09:20 | 30.49604 | 113.46595 | 26463 ft | 426 kts | 280° |
| 2026-05-04 09:21 | 30.50197 | 113.43222 | 26702 ft | 428 kts | 279° |
| 2026-05-04 09:21 | 30.50788 | 113.39845 | 26929 ft | 429 kts | 279° |
| 2026-05-04 09:21 | 30.51379 | 113.36451 | 27236 ft | 427 kts | 279° |
| 2026-05-04 09:21 | 30.51970 | 113.33079 | 27565 ft | 426 kts | 279° |
| 2026-05-04 09:22 | 30.52561 | 113.29719 | 27902 ft | 424 kts | 279° |
| 2026-05-04 09:22 | 30.53147 | 113.26374 | 28238 ft | 423 kts | 279° |
| 2026-05-04 09:22 | 30.53727 | 113.23032 | 28578 ft | 422 kts | 278° |
| 2026-05-04 09:22 | 30.54301 | 113.19704 | 28927 ft | 420 kts | 278° |
| 2026-05-04 09:23 | 30.54853 | 113.16379 | 29272 ft | 418 kts | 275° |
| 2026-05-04 09:23 | 30.55001 | 113.13038 | 29620 ft | 413 kts | 266° |
| 2026-05-04 09:23 | 30.54858 | 113.09719 | 29973 ft | 411 kts | 265° |
| 2026-05-04 09:23 | 30.54718 | 113.06407 | 30293 ft | 410 kts | 265° |
| 2026-05-04 09:25 | 30.53761 | 112.83706 | 32509 ft | 396 kts | 266° |
| 2026-05-04 09:25 | 30.53622 | 112.80512 | 32832 ft | 394 kts | 266° |
| 2026-05-04 09:26 | 30.53485 | 112.77350 | 33148 ft | 392 kts | 266° |
| 2026-05-04 09:26 | 30.53346 | 112.74193 | 33465 ft | 390 kts | 266° |
| 2026-05-04 09:26 | 30.53208 | 112.71059 | 33779 ft | 388 kts | 267° |
| 2026-05-04 09:26 | 30.53070 | 112.67937 | 34083 ft | 387 kts | 267° |
| 2026-05-04 09:27 | 30.52931 | 112.64829 | 34334 ft | 385 kts | 267° |
| 2026-05-04 09:27 | 30.52788 | 112.61724 | 34559 ft | 385 kts | 267° |
| 2026-05-04 09:27 | 30.52645 | 112.58632 | 34794 ft | 384 kts | 267° |
| 2026-05-04 09:27 | 30.52503 | 112.55545 | 35013 ft | 383 kts | 267° |
| 2026-05-04 09:28 | 30.52363 | 112.52496 | 35220 ft | 383 kts | 267° |
| 2026-05-04 09:28 | 30.52221 | 112.49416 | 35422 ft | 382 kts | 267° |
| 2026-05-04 09:28 | 30.52077 | 112.46300 | 35622 ft | 382 kts | 267° |
| 2026-05-04 09:28 | 30.51938 | 112.43263 | 35806 ft | 381 kts | 267° |
| 2026-05-04 09:29 | 30.51796 | 112.40197 | 35993 ft | 381 kts | 267° |
| 2026-05-04 09:29 | 30.51653 | 112.37126 | 36087 ft | 382 kts | 267° |
| 2026-05-04 09:29 | 30.51360 | 112.30925 | 36106 ft | 386 kts | 267° |
| 2026-05-04 09:30 | 30.51060 | 112.24702 | 36100 ft | 387 kts | 267° |
| 2026-05-04 09:30 | 30.50759 | 112.18478 | 36099 ft | 387 kts | 267° |
| 2026-05-04 09:31 | 30.50461 | 112.12237 | 36100 ft | 387 kts | 267° |
| 2026-05-04 09:31 | 30.50159 | 112.06003 | 36100 ft | 387 kts | 267° |
| 2026-05-04 09:32 | 30.49851 | 111.99796 | 36100 ft | 388 kts | 267° |
| 2026-05-04 09:34 | 30.48619 | 111.75809 | 36097 ft | 389 kts | 267° |
| 2026-05-04 09:34 | 30.48293 | 111.69540 | 36096 ft | 389 kts | 267° |
| 2026-05-04 09:35 | 30.47964 | 111.63268 | 36096 ft | 390 kts | 267° |
| 2026-05-04 09:35 | 30.47625 | 111.56993 | 36095 ft | 390 kts | 267° |
| 2026-05-04 09:37 | 30.44910 | 111.32058 | 36095 ft | 391 kts | 262° |
| 2026-05-04 09:38 | 30.44049 | 111.25834 | 36095 ft | 392 kts | 262° |
| 2026-05-04 09:38 | 30.43186 | 111.19610 | 36098 ft | 392 kts | 262° |
| 2026-05-04 09:39 | 30.42319 | 111.13421 | 36098 ft | 392 kts | 262° |
| 2026-05-04 09:39 | 30.41444 | 111.07191 | 36102 ft | 392 kts | 262° |
| 2026-05-04 09:40 | 30.40561 | 111.00947 | 36102 ft | 393 kts | 262° |
| 2026-05-04 09:40 | 30.39682 | 110.94716 | 36102 ft | 393 kts | 262° |
| 2026-05-04 09:42 | 30.36125 | 110.69773 | 36095 ft | 392 kts | 262° |
| 2026-05-04 09:43 | 30.35235 | 110.63548 | 36108 ft | 393 kts | 262° |
| 2026-05-04 09:43 | 30.34332 | 110.57293 | 36101 ft | 393 kts | 262° |
| 2026-05-04 09:44 | 30.33427 | 110.51059 | 36111 ft | 394 kts | 262° |
| 2026-05-04 09:46 | 30.29814 | 110.26404 | 36105 ft | 394 kts | 262° |
| 2026-05-04 09:46 | 30.28904 | 110.20151 | 36115 ft | 394 kts | 262° |
| 2026-05-04 09:47 | 30.27990 | 110.13903 | 36110 ft | 394 kts | 262° |
| 2026-05-04 09:49 | 30.24257 | 109.88923 | 36112 ft | 394 kts | 262° |
| 2026-05-04 09:51 | 30.20964 | 109.67065 | 36106 ft | 395 kts | 262° |
| 2026-05-04 09:51 | 30.19997 | 109.60811 | 36100 ft | 396 kts | 260° |
| 2026-05-04 09:52 | 30.18454 | 109.54735 | 36099 ft | 397 kts | 257° |
| 2026-05-04 09:52 | 30.16831 | 109.48621 | 36098 ft | 398 kts | 257° |
| 2026-05-04 09:53 | 30.15211 | 109.42505 | 36102 ft | 399 kts | 256° |
| 2026-05-04 09:53 | 30.13584 | 109.36384 | 36107 ft | 399 kts | 257° |
| 2026-05-04 09:54 | 30.11950 | 109.30270 | 36116 ft | 399 kts | 257° |
| 2026-05-04 09:54 | 30.10318 | 109.24154 | 36117 ft | 399 kts | 257° |
| 2026-05-04 09:55 | 30.08684 | 109.18044 | 36096 ft | 398 kts | 257° |
| 2026-05-04 09:55 | 30.07030 | 109.11934 | 36112 ft | 399 kts | 256° |
| 2026-05-04 09:56 | 30.05374 | 109.05812 | 36119 ft | 399 kts | 257° |
| 2026-05-04 09:56 | 30.03721 | 108.99691 | 36118 ft | 399 kts | 257° |
| 2026-05-04 09:57 | 30.02075 | 108.93566 | 36119 ft | 400 kts | 257° |
| 2026-05-04 09:57 | 30.00460 | 108.87418 | 36121 ft | 400 kts | 257° |
| 2026-05-04 09:58 | 29.98861 | 108.81287 | 36124 ft | 399 kts | 257° |
| 2026-05-04 09:58 | 29.97249 | 108.75169 | 36124 ft | 399 kts | 257° |
| 2026-05-04 10:00 | 29.90754 | 108.50711 | 36131 ft | 399 kts | 257° |
| 2026-05-04 10:02 | 29.85036 | 108.29255 | 34329 ft | 403 kts | 257° |